No particular awareness of the weather is required.    There are no Weather-warnings


Meteo18 Weather Cam more information Meteo18 Weather Cam


Thunder radar more information blitzortung!


Rain radar more information rain snow radar


Visit our other weather sites:

Template documentation
and downloads

And another site



Weather Underground History page Text

Daily Summary for February 16, 2018 Units:  English    Metric   Both
« Previous Day
Next Day »
Daily Weekly Monthly Yearly Custom
  High: Low: Average:
Temperature: TemperatureC °F 4.8 °F 7.2 °F
Dew Point: DewpointC °F 3.9 °F 5.2 °F
Humidity: Humidity % 75 % 87 %
Wind Speed: WindSpeedKMH mph 0.0 mph 5.7 mph
Wind Gust: WindSpeedGustKMH mph - -
Wind:- - East
Pressure: PressurehPa in 1019.2 in -
Precipitation: 0.3 in    
Historical Graphs
 
 
Tabular Data for February 16, 2018
Time Temperature Dew Point Pressure Wind Wind Speed Wind Gust Humidity Rainfall Rate (Hourly)
TemperatureC °F DewpointC °F PressurehPa in Calm     Humidity % HourlyPrecipMM in
00:05 9.0 °F 8.2 °F 1021.9 in WNW 1.4 mph 8.0 mph 95 % 0.0 in
00:11 9.0 °F 8.2 °F 1021.9 in Calm   4.8 mph 95 % 0.0 in
00:17 9.0 °F 8.2 °F 1021.9 in Calm   1.6 mph 95 % 0.0 in
00:23 8.9 °F 8.1 °F 1021.9 in Calm     95 % 0.0 in
00:29 8.9 °F 8.1 °F 1021.6 in Calm     95 % 0.0 in
00:35 8.9 °F 8.1 °F 1021.9 in Calm     95 % 0.0 in
00:41 8.9 °F 8.1 °F 1021.9 in NW 1.4 mph 1.6 mph 95 % 0.0 in
00:47 8.9 °F 8.1 °F 1022.2 in Calm   1.6 mph 95 % 0.0 in
00:53 8.9 °F 8.1 °F 1022.2 in Calm   1.6 mph 95 % 0.0 in
01:00 8.9 °F 8.1 °F 1022.2 in Calm     95 % 0.0 in
01:06 8.8 °F 8.2 °F 1022.6 in Calm   1.6 mph 96 % 0.0 in
01:12 8.8 °F 8.2 °F 1022.6 in WNW 1.4 mph 4.8 mph 96 % 0.0 in
01:18 8.8 °F 8.2 °F 1022.6 in Calm   3.2 mph 96 % 0.0 in
01:24 8.7 °F 8.1 °F 1022.6 in NE 16.3 mph 17.7 mph 96 % 0.0 in
01:30 8.4 °F 7.6 °F 1022.6 in NNE 6.4 mph 12.9 mph 95 % 0.0 in
01:36 8.2 °F 7.6 °F 1022.9 in NNW 4.7 mph 11.3 mph 96 % 0.0 in
01:42 8.0 °F 7.4 °F 1022.9 in NNW 1.4 mph 16.1 mph 96 % 0.0 in
01:48 7.9 °F 7.3 °F 1022.9 in NNE 7.9 mph 16.1 mph 96 % 0.0 in
01:54 7.8 °F 7.2 °F 1022.9 in NE 4.7 mph 12.9 mph 96 % 0.0 in
02:00 7.8 °F 7.2 °F 1022.9 in NW 3.2 mph 9.7 mph 96 % 0.0 in
02:06 7.7 °F 7.1 °F 1022.9 in NNW 3.2 mph 6.4 mph 96 % 0.0 in
02:12 7.7 °F 6.9 °F 1023.2 in North 7.9 mph 11.3 mph 95 % 0.0 in
02:18 7.6 °F 6.9 °F 1023.2 in North 6.4 mph 16.1 mph 95 % 0.0 in
02:24 7.4 °F 6.7 °F 1023.2 in NNW 6.4 mph 12.9 mph 95 % 0.0 in
02:30 7.4 °F 6.7 °F 1023.2 in North 6.4 mph 14.5 mph 95 % 0.0 in
02:36 7.4 °F 6.7 °F 1023.2 in NE 7.9 mph 12.9 mph 95 % 0.0 in
02:42 7.4 °F 6.7 °F 1023.2 in NNW 4.7 mph 16.1 mph 95 % 0.0 in
02:48 7.3 °F 6.6 °F 1023.6 in WNW 3.2 mph 12.9 mph 95 % 0.0 in
02:54 7.3 °F 6.6 °F 1023.6 in NNW 4.7 mph 11.3 mph 95 % 0.0 in
03:00 7.3 °F 6.6 °F 1023.6 in North 9.7 mph 16.1 mph 95 % 0.0 in
03:06 7.3 °F 6.6 °F 1023.6 in NW 9.7 mph 16.1 mph 95 % 0.0 in
03:12 7.2 °F 6.3 °F 1023.9 in NE 9.7 mph 19.3 mph 94 % 0.0 in
03:18 6.6 °F 5.5 °F 1023.9 in North 20.9 mph 25.7 mph 93 % 0.0 in
03:24 6.3 °F 5.1 °F 1023.9 in NNE 3.2 mph 19.3 mph 92 % 0.0 in
03:30 6.3 °F 5.1 °F 1024.3 in WNW 6.4 mph 17.7 mph 92 % 0.0 in
03:36 6.2 °F 5.0 °F 1024.3 in NNW 3.2 mph 8.0 mph 92 % 0.0 in
03:42 6.2 °F 5.0 °F 1024.3 in NNW 6.4 mph 11.3 mph 92 % 0.0 in
03:54 6.1 °F 5.1 °F 1024.3 in NNE 4.7 mph 9.7 mph 93 % 0.0 in
04:00 6.1 °F 5.1 °F 1024.3 in NW 1.4 mph 9.7 mph 93 % 0.0 in
04:06 6.0 °F 5.0 °F 1024.3 in NNE 4.7 mph 9.7 mph 93 % 0.0 in
04:12 5.9 °F 4.9 °F 1024.3 in NNE 1.4 mph 9.7 mph 93 % 0.0 in
04:18 5.8 °F 4.8 °F 1024.3 in NNW 4.7 mph 11.3 mph 93 % 0.0 in
04:24 5.8 °F 4.8 °F 1024.3 in NNE 6.4 mph 11.3 mph 93 % 0.0 in
04:30 5.7 °F 4.7 °F 1024.3 in North 6.4 mph 8.0 mph 93 % 0.0 in
04:36 5.7 °F 4.7 °F 1024.3 in NNW 7.9 mph 11.3 mph 93 % 0.0 in
04:42 5.7 °F 4.7 °F 1024.3 in East 3.2 mph 11.3 mph 93 % 0.0 in
04:48 5.7 °F 4.7 °F 1024.6 in North 7.9 mph 9.7 mph 93 % 0.0 in
04:54 5.7 °F 4.7 °F 1024.6 in North 1.4 mph 4.8 mph 93 % 0.0 in
05:00 5.7 °F 4.7 °F 1024.6 in North 6.4 mph 14.5 mph 93 % 0.0 in
05:06 5.7 °F 4.7 °F 1024.9 in North 3.2 mph 6.4 mph 93 % 0.0 in
05:12 5.7 °F 4.7 °F 1024.9 in North 1.4 mph 6.4 mph 93 % 0.0 in
05:18 5.8 °F 4.6 °F 1024.9 in North 3.2 mph 4.8 mph 92 % 0.0 in
05:24 5.8 °F 4.6 °F 1024.9 in North 1.4 mph 4.8 mph 92 % 0.0 in
05:30 5.8 °F 4.6 °F 1024.9 in Calm   4.8 mph 92 % 0.0 in
05:36 5.7 °F 4.5 °F 1025.3 in North 1.4 mph 3.2 mph 92 % 0.0 in
05:42 5.7 °F 4.5 °F 1025.3 in Calm   3.2 mph 92 % 0.0 in
05:48 5.7 °F 4.5 °F 1025.3 in North 3.2 mph 6.4 mph 92 % 0.0 in
05:54 5.7 °F 4.5 °F 1025.3 in North 9.7 mph 12.9 mph 92 % 0.0 in
06:00 5.7 °F 4.5 °F 1025.3 in North 4.7 mph 6.4 mph 92 % 0.0 in
06:06 5.7 °F 4.7 °F 1025.3 in NNW 3.2 mph 6.4 mph 93 % 0.0 in
06:12 5.6 °F 4.6 °F 1025.3 in Calm   6.4 mph 93 % 0.0 in
06:18 5.6 °F 4.6 °F 1025.3 in NNW 6.4 mph 8.0 mph 93 % 0.0 in
06:24 5.6 °F 4.6 °F 1025.3 in NW 3.2 mph 8.0 mph 93 % 0.0 in
06:30 5.5 °F 4.5 °F 1025.3 in NNE 4.7 mph 9.7 mph 93 % 0.0 in
06:36 5.5 °F 4.5 °F 1025.3 in NNW 4.7 mph 8.0 mph 93 % 0.0 in
06:42 5.4 °F 4.4 °F 1025.3 in North 6.4 mph 6.4 mph 93 % 0.0 in
06:48 5.4 °F 4.4 °F 1025.3 in North 3.2 mph 8.0 mph 93 % 0.0 in
06:54 5.4 °F 4.4 °F 1025.3 in Calm   4.8 mph 93 % 0.0 in
07:00 5.4 °F 4.4 °F 1025.3 in Calm   6.4 mph 93 % 0.0 in
07:06 5.3 °F 4.3 °F 1025.6 in NNE 3.2 mph 6.4 mph 93 % 0.0 in
07:12 5.3 °F 4.3 °F 1025.6 in NNW 3.2 mph 4.8 mph 93 % 0.0 in
07:18 5.3 °F 4.3 °F 1025.6 in NNE 1.4 mph 4.8 mph 93 % 0.0 in
07:24 5.3 °F 4.3 °F 1025.6 in Calm   1.6 mph 93 % 0.0 in
07:30 5.2 °F 4.2 °F 1025.6 in North 1.4 mph 3.2 mph 93 % 0.0 in
07:36 5.2 °F 4.2 °F 1025.6 in Calm   4.8 mph 93 % 0.0 in
07:42 5.2 °F 4.2 °F 1025.6 in Calm   3.2 mph 93 % 0.0 in
07:48 5.1 °F 4.1 °F 1026.0 in NNE 1.4 mph 4.8 mph 93 % 0.0 in
07:54 5.1 °F 4.1 °F 1025.6 in North 4.7 mph 6.4 mph 93 % 0.0 in
08:00 5.1 °F 4.1 °F 1026.0 in NNE 3.2 mph 8.0 mph 93 % 0.0 in
08:06 5.0 °F 4.0 °F 1026.0 in Calm   4.8 mph 93 % 0.0 in
08:12 4.9 °F 3.9 °F 1026.0 in North 1.4 mph 3.2 mph 93 % 0.0 in
08:18 4.9 °F 4.0 °F 1026.3 in NNE 1.4 mph 4.8 mph 94 % 0.0 in
08:24 4.8 °F 3.9 °F 1026.0 in NNW 3.2 mph 4.8 mph 94 % 0.0 in
08:30 4.8 °F 3.9 °F 1026.3 in NNW 4.7 mph 4.8 mph 94 % 0.0 in
08:37 4.8 °F 3.9 °F 1026.6 in NNW 3.2 mph 4.8 mph 94 % 0.0 in
08:43 4.8 °F 3.9 °F 1026.6 in North 3.2 mph 3.2 mph 94 % 0.0 in
08:49 4.8 °F 3.9 °F 1026.6 in Calm   1.6 mph 94 % 0.0 in
08:55 4.8 °F 3.9 °F 1026.6 in North 1.4 mph 3.2 mph 94 % 0.0 in
09:01 4.8 °F 3.9 °F 1026.6 in NNE 3.2 mph 3.2 mph 94 % 0.0 in
09:07 4.9 °F 4.2 °F 1026.6 in NE 3.2 mph 4.8 mph 95 % 0.0 in
09:13 5.1 °F 4.4 °F 1026.6 in NE 3.2 mph 6.4 mph 95 % 0.0 in
09:19 5.2 °F 4.3 °F 1026.6 in NNE 7.9 mph 8.0 mph 94 % 0.0 in
09:25 5.3 °F 4.4 °F 1027.0 in North 3.2 mph 8.0 mph 94 % 0.0 in
09:31 5.4 °F 4.5 °F 1027.0 in NNE 1.4 mph 3.2 mph 94 % 0.0 in
09:37 5.5 °F 4.6 °F 1026.6 in NE 3.2 mph 3.2 mph 94 % 0.0 in
09:43 5.7 °F 4.8 °F 1027.0 in NE 4.7 mph 4.8 mph 94 % 0.0 in
09:49 5.7 °F 4.7 °F 1026.6 in NE 4.7 mph 9.7 mph 93 % 0.0 in
09:55 5.8 °F 4.8 °F 1026.6 in NE 4.7 mph 8.0 mph 93 % 0.0 in
10:01 5.8 °F 4.6 °F 1027.0 in NE 6.4 mph 12.9 mph 92 % 0.0 in
10:07 5.9 °F 4.7 °F 1027.0 in ENE 4.7 mph 9.7 mph 92 % 0.0 in
10:13 5.9 °F 4.7 °F 1027.0 in NE 7.9 mph 11.3 mph 92 % 0.0 in
10:19 5.9 °F 4.7 °F 1027.0 in NNE 4.7 mph 12.9 mph 92 % 0.0 in
10:25 5.9 °F 4.7 °F 1027.0 in NNE 4.7 mph 12.9 mph 92 % 0.0 in
10:31 5.9 °F 4.7 °F 1027.0 in NE 1.4 mph 11.3 mph 92 % 0.0 in
10:37 5.9 °F 4.7 °F 1027.0 in NE 4.7 mph 12.9 mph 92 % 0.0 in
10:43 5.9 °F 4.7 °F 1027.0 in NNE 3.2 mph 12.9 mph 92 % 0.0 in
10:49 6.1 °F 4.7 °F 1027.0 in NNE 7.9 mph 11.3 mph 91 % 0.0 in
10:55 6.3 °F 4.9 °F 1027.0 in NE 7.9 mph 14.5 mph 91 % 0.0 in
11:01 6.4 °F 4.9 °F 1027.0 in North 4.7 mph 16.1 mph 90 % 0.0 in
11:07 6.4 °F 4.7 °F 1027.0 in ENE 4.7 mph 14.5 mph 89 % 0.0 in
11:13 6.5 °F 4.8 °F 1027.0 in NE 7.9 mph 14.5 mph 89 % 0.0 in
11:19 6.6 °F 4.9 °F 1027.0 in NE 6.4 mph 16.1 mph 89 % 0.0 in
11:25 6.7 °F 4.9 °F 1027.0 in East 7.9 mph 12.9 mph 88 % 0.0 in
11:31 6.9 °F 4.9 °F 1027.0 in NE 9.7 mph 16.1 mph 87 % 0.0 in
11:37 7.1 °F 4.9 °F 1027.0 in NE 11.1 mph 16.1 mph 86 % 0.0 in
11:43 7.1 °F 4.7 °F 1027.0 in NE 14.3 mph 22.5 mph 85 % 0.0 in
11:49 7.1 °F 4.7 °F 1027.0 in NNE 13.0 mph 20.9 mph 85 % 0.0 in
11:55 7.3 °F 4.9 °F 1026.6 in NE 13.0 mph 20.9 mph 85 % 0.0 in
12:01 7.3 °F 4.8 °F 1027.0 in NNE 16.3 mph 20.9 mph 84 % 0.0 in
12:07 7.6 °F 4.9 °F 1026.6 in NNE 9.7 mph 19.3 mph 83 % 0.0 in
12:13 7.7 °F 5.0 °F 1026.6 in ESE 7.9 mph 19.3 mph 83 % 0.0 in
12:19 7.9 °F 5.2 °F 1026.6 in ENE 20.9 mph 20.9 mph 83 % 0.0 in
12:25 7.9 °F 5.2 °F 1026.6 in ENE 7.9 mph 19.3 mph 83 % 0.0 in
12:31 7.9 °F 5.0 °F 1026.6 in NE 16.3 mph 20.9 mph 82 % 0.0 in
12:37 7.9 °F 5.0 °F 1026.6 in East 11.1 mph 14.5 mph 82 % 0.0 in
12:43 8.1 °F 5.0 °F 1026.6 in ENE 13.0 mph 24.1 mph 81 % 0.0 in
12:49 8.3 °F 5.2 °F 1026.3 in ENE 7.9 mph 17.7 mph 81 % 0.0 in
12:55 8.4 °F 5.2 °F 1026.3 in ENE 6.4 mph 20.9 mph 80 % 0.0 in
13:01 8.3 °F 5.1 °F 1026.0 in ENE 6.4 mph 16.1 mph 80 % 0.0 in
13:07 8.5 °F 5.2 °F 1026.3 in East 14.3 mph 19.3 mph 80 % 0.0 in
13:13 8.4 °F 5.0 °F 1026.3 in NNE 13.0 mph 13.0 mph 79 % 0.0 in
13:19 8.3 °F 5.1 °F 1026.0 in NNE 13.0 mph 17.7 mph 80 % 0.0 in
13:25 8.6 °F 5.5 °F 1026.0 in ENE 6.4 mph 12.9 mph 81 % 0.0 in
13:31 8.7 °F 5.3 °F 1026.0 in NE 9.7 mph 16.1 mph 79 % 0.0 in
13:37 8.7 °F 5.4 °F 1026.0 in ENE 14.3 mph 14.5 mph 80 % 0.0 in
13:43 8.6 °F 5.3 °F 1025.6 in East 6.4 mph 20.9 mph 80 % 0.0 in
13:49 8.8 °F 5.4 °F 1025.6 in NE 3.2 mph 16.1 mph 79 % 0.0 in
13:55 8.8 °F 5.2 °F 1025.6 in NE 16.3 mph 17.7 mph 78 % 0.0 in
14:01 8.8 °F 5.0 °F 1025.6 in NNE 16.3 mph 20.9 mph 77 % 0.0 in
14:07 8.8 °F 5.2 °F 1025.6 in NNE 3.2 mph 16.1 mph 78 % 0.0 in
14:13 9.0 °F 5.2 °F 1025.3 in NE 6.4 mph 11.3 mph 77 % 0.0 in
14:19 9.0 °F 5.0 °F 1025.3 in NE 13.0 mph 19.3 mph 76 % 0.0 in
14:25 8.9 °F 4.7 °F 1025.3 in NNE 9.7 mph 12.9 mph 75 % 0.0 in
14:31 9.1 °F 5.3 °F 1025.3 in NE 11.1 mph 14.5 mph 77 % 0.0 in
14:37 9.1 °F 4.9 °F 1025.3 in NNE 7.9 mph 14.5 mph 75 % 0.0 in
14:43 9.1 °F 4.9 °F 1025.3 in NNE 11.1 mph 17.7 mph 75 % 0.0 in
14:49 9.0 °F 4.8 °F 1024.9 in NNE 14.3 mph 14.5 mph 75 % 0.0 in
14:55 9.0 °F 5.0 °F 1024.9 in ENE 13.0 mph 13.0 mph 76 % 0.0 in
15:01 9.0 °F 5.0 °F 1024.9 in ENE 4.7 mph 16.1 mph 76 % 0.0 in
15:07 9.1 °F 5.1 °F 1024.6 in East 9.7 mph 11.3 mph 76 % 0.0 in
15:13 9.0 °F 5.0 °F 1024.6 in North 11.1 mph 14.5 mph 76 % 0.0 in
15:19 8.9 °F 4.9 °F 1024.6 in North 13.0 mph 13.0 mph 76 % 0.0 in
15:25 8.9 °F 4.9 °F 1024.6 in ENE 6.4 mph 14.5 mph 76 % 0.0 in
15:31 8.9 °F 4.9 °F 1024.3 in NNE 4.7 mph 14.5 mph 76 % 0.0 in
15:37 8.9 °F 5.1 °F 1024.3 in ENE 4.7 mph 14.5 mph 77 % 0.0 in
15:43 8.9 °F 5.1 °F 1024.6 in NNE 6.4 mph 16.1 mph 77 % 0.0 in
15:49 8.9 °F 5.1 °F 1024.6 in NE 13.0 mph 14.5 mph 77 % 0.0 in
15:55 8.9 °F 5.5 °F 1024.3 in NE 4.7 mph 8.0 mph 79 % 0.0 in
16:01 8.9 °F 5.3 °F 1024.3 in NNE 4.7 mph 12.9 mph 78 % 0.0 in
16:07 8.9 °F 5.3 °F 1023.9 in NE 7.9 mph 16.1 mph 78 % 0.0 in
16:13 8.9 °F 5.5 °F 1023.9 in NE 11.1 mph 14.5 mph 79 % 0.0 in
16:19 8.9 °F 5.5 °F 1023.9 in ENE 6.4 mph 16.1 mph 79 % 0.0 in
16:25 8.9 °F 5.5 °F 1023.9 in ENE 6.4 mph 11.3 mph 79 % 0.0 in
16:31 8.9 °F 5.5 °F 1023.9 in NNE 11.1 mph 12.9 mph 79 % 0.0 in
16:37 8.8 °F 5.4 °F 1023.9 in NE 4.7 mph 8.0 mph 79 % 0.0 in
16:43 8.8 °F 5.4 °F 1023.9 in ENE 6.4 mph 14.5 mph 79 % 0.0 in
16:49 8.8 °F 5.2 °F 1023.9 in NE 6.4 mph 20.9 mph 78 % 0.0 in
16:55 8.8 °F 5.4 °F 1023.9 in ENE 11.1 mph 14.5 mph 79 % 0.0 in
17:01 8.7 °F 5.4 °F 1023.9 in NE 9.7 mph 14.5 mph 80 % 0.0 in
17:07 8.7 °F 5.3 °F 1023.9 in NE 9.7 mph 16.1 mph 79 % 0.0 in
17:13 8.6 °F 5.3 °F 1023.6 in NNE 9.7 mph 9.7 mph 80 % 0.0 in
17:19 8.6 °F 5.3 °F 1023.6 in East 1.4 mph 9.7 mph 80 % 0.0 in
17:25 8.6 °F 5.3 °F 1023.6 in NNE 3.2 mph 9.7 mph 80 % 0.0 in
17:32 8.5 °F 5.4 °F 1023.6 in NNE 6.4 mph 11.3 mph 81 % 0.0 in
17:38 8.4 °F 5.3 °F 1023.2 in NNE 4.7 mph 9.7 mph 81 % 0.0 in
17:44 8.4 °F 5.3 °F 1023.6 in NNE 6.4 mph 12.9 mph 81 % 0.0 in
17:50 8.4 °F 5.5 °F 1023.2 in NE 6.4 mph 11.3 mph 82 % 0.0 in
17:56 8.3 °F 5.4 °F 1023.2 in NNE 6.4 mph 11.3 mph 82 % 0.0 in
18:02 8.3 °F 5.4 °F 1023.2 in NE 7.9 mph 12.9 mph 82 % 0.0 in
18:08 8.2 °F 5.3 °F 1023.2 in NE 7.9 mph 11.3 mph 82 % 0.0 in
18:14 8.2 °F 5.5 °F 1023.2 in NE 1.4 mph 11.3 mph 83 % 0.0 in
18:20 8.1 °F 5.2 °F 1023.2 in East 1.4 mph 9.7 mph 82 % 0.0 in
18:26 8.1 °F 5.4 °F 1023.2 in ENE 7.9 mph 11.3 mph 83 % 0.0 in
18:32 8.1 °F 5.4 °F 1023.2 in NE 6.4 mph 8.0 mph 83 % 0.0 in
18:38 8.0 °F 5.3 °F 1022.9 in Calm   6.4 mph 83 % 0.0 in
18:44 8.0 °F 5.5 °F 1022.9 in East 1.4 mph 6.4 mph 84 % 0.0 in
18:50 7.9 °F 5.4 °F 1023.2 in ENE 4.7 mph 8.0 mph 84 % 0.0 in
18:56 7.9 °F 5.4 °F 1023.2 in East 4.7 mph 6.4 mph 84 % 0.0 in
19:02 7.9 °F 5.4 °F 1022.9 in East 3.2 mph 6.4 mph 84 % 0.0 in
19:08 7.8 °F 5.1 °F 1022.9 in ENE 6.4 mph 11.3 mph 83 % 0.0 in
19:14 7.8 °F 5.1 °F 1022.9 in ENE 3.2 mph 12.9 mph 83 % 0.0 in
19:20 7.8 °F 5.1 °F 1022.9 in NE 6.4 mph 11.3 mph 83 % 0.0 in
19:26 7.7 °F 5.0 °F 1022.9 in ENE 1.4 mph 8.0 mph 83 % 0.0 in
19:32 7.7 °F 5.0 °F 1022.9 in ENE 4.7 mph 9.7 mph 83 % 0.0 in
19:38 7.7 °F 5.0 °F 1022.9 in East 7.9 mph 8.0 mph 83 % 0.0 in
19:44 7.7 °F 5.0 °F 1022.6 in ENE 7.9 mph 9.7 mph 83 % 0.0 in
19:50 7.6 °F 4.9 °F 1022.6 in NE 3.2 mph 8.0 mph 83 % 0.0 in
19:56 7.6 °F 4.9 °F 1022.6 in NE 3.2 mph 9.7 mph 83 % 0.0 in
20:02 7.6 °F 4.9 °F 1022.6 in NE 7.9 mph 11.3 mph 83 % 0.0 in
20:08 7.6 °F 4.9 °F 1022.6 in NNE 14.3 mph 14.5 mph 83 % 0.0 in
20:14 7.5 °F 4.8 °F 1022.6 in ENE 11.1 mph 11.3 mph 83 % 0.0 in
20:20 7.5 °F 4.8 °F 1022.2 in ENE 11.1 mph 14.5 mph 83 % 0.0 in
20:26 7.4 °F 4.7 °F 1022.2 in NNE 11.1 mph 11.3 mph 83 % 0.0 in
20:32 7.4 °F 4.7 °F 1022.2 in NE 9.7 mph 12.9 mph 83 % 0.0 in
20:38 7.4 °F 4.7 °F 1022.2 in NE 11.1 mph 14.5 mph 83 % 0.0 in
20:44 7.4 °F 4.7 °F 1022.2 in NE 7.9 mph 12.9 mph 83 % 0.0 in
20:50 7.4 °F 4.7 °F 1022.2 in NE 3.2 mph 11.3 mph 83 % 0.0 in
20:56 7.4 °F 4.7 °F 1022.2 in NE 7.9 mph 16.1 mph 83 % 0.0 in
21:02 7.3 °F 4.6 °F 1021.9 in NNE 3.2 mph 11.3 mph 83 % 0.0 in
21:08 7.4 °F 4.7 °F 1021.9 in NE 1.4 mph 8.0 mph 83 % 0.0 in
21:14 7.3 °F 4.8 °F 1021.9 in NE 4.7 mph 8.0 mph 84 % 0.0 in
21:20 7.3 °F 4.6 °F 1021.9 in ENE 6.4 mph 9.7 mph 83 % 0.0 in
21:26 7.3 °F 4.6 °F 1021.9 in NE 4.7 mph 8.0 mph 83 % 0.0 in
21:34 7.2 °F 4.7 °F 1021.6 in NE 3.2 mph 4.8 mph 84 % 0.0 in
21:40 7.1 °F 4.7 °F 1021.6 in NE 3.2 mph 8.0 mph 85 % 0.0 in
21:46 7.1 °F 4.7 °F 1021.2 in NE 6.4 mph 9.7 mph 85 % 0.0 in
21:52 7.1 °F 4.7 °F 1021.6 in NNE 6.4 mph 9.7 mph 85 % 0.0 in
21:58 7.0 °F 4.7 °F 1021.2 in NE 7.9 mph 8.0 mph 85 % 0.0 in
22:04 7.0 °F 4.7 °F 1021.2 in NE 6.4 mph 8.0 mph 85 % 0.0 in
22:10 6.9 °F 4.6 °F 1021.2 in NNE 7.9 mph 8.0 mph 85 % 0.0 in
22:18 6.9 °F 4.7 °F 1021.2 in NE 4.7 mph 11.3 mph 86 % 0.0 in
22:24 6.9 °F 4.7 °F 1020.9 in NE 6.4 mph 9.7 mph 86 % 0.0 in
22:30 6.9 °F 4.7 °F 1020.9 in NE 4.7 mph 8.0 mph 86 % 0.0 in
22:36 6.9 °F 4.7 °F 1020.9 in ENE 4.7 mph 11.3 mph 86 % 0.0 in
22:42 6.9 °F 4.7 °F 1020.9 in NE 1.4 mph 6.4 mph 86 % 0.0 in
22:48 6.9 °F 4.7 °F 1020.9 in ENE 3.2 mph 4.8 mph 86 % 0.0 in
22:54 6.9 °F 4.7 °F 1020.5 in NE 1.4 mph 4.8 mph 86 % 0.0 in
23:00 6.9 °F 4.7 °F 1020.5 in NNE 1.4 mph 11.3 mph 86 % 0.0 in
23:06 6.9 °F 4.7 °F 1020.5 in NE 3.2 mph 6.4 mph 86 % 0.0 in
23:12 6.8 °F 4.6 °F 1020.2 in Calm   6.4 mph 86 % 0.0 in
23:18 6.8 °F 4.8 °F 1019.9 in ENE 1.4 mph 4.8 mph 87 % 0.0 in
23:24 6.8 °F 4.8 °F 1019.9 in ENE 3.2 mph 8.0 mph 87 % 0.0 in
23:30 6.7 °F 4.7 °F 1019.5 in East 6.4 mph 8.0 mph 87 % 0.0 in
23:36 6.7 °F 4.7 °F 1019.5 in NE 1.4 mph 6.4 mph 87 % 0.0 in
23:42 6.7 °F 4.9 °F 1019.5 in Calm   6.4 mph 88 % 0.0 in
23:48 6.6 °F 4.8 °F 1019.5 in ENE 6.4 mph 6.4 mph 88 % 0.0 in
23:54 6.5 °F 4.8 °F 1019.2 in NE 4.7 mph 6.4 mph 89 % 0.3 in
Meteo18
Compliments of Weather Underground - 4 mb

Script developed by  Jim McMurry - jmcmurry@mwt.net Adapted for the template by  Wim van der Kuil - Leuven-Template.eu

You find our weather info also at:

European Weather Network

Weather Underground

Equipment we use:

Weather-station
Davis Vue

Weather-program
Meteobridge

Weather-server
Raspberry PI 2 B+

Provider
1 and 1

Davis Vue

Meteobridge

Raspberry PI 2 B+

1 and 1